KAPF/APF METAR and TAF weather

Enter ICAO airport designator
Station Type Date Time Source
KAPF METAR 2019/05/25 14:53 UTC NOAA

KAPF 251453Z 09012KT 10SM CLR 28/18 A3009 RMK AO2 SLP187 T02780183 51006


Station Type Date Time Source
KAPF Decoded METAR 2019/05/25 14:53 UTC NOAA

NAPLES MUNICIPAL AIRPORT, FL, United States (KAPF) 26-09N 081-46W
May 25, 2019 - 10:53 AM EDT / 2019.05.25 1453 UTC
Wind: from the E (090 degrees) at 14 MPH (12 KT):0
Visibility: 10 mile(s):0
Sky conditions: clear
Temperature: 82.0 F (27.8 C)
Dew Point: 64.9 F (18.3 C)
Relative Humidity: 56%
Pressure (altimeter): 30.09 in. Hg (1018 hPa)
Pressure tendency: 0.02 inches (0.6 hPa) higher than three hours ago
ob: KAPF 251453Z 09012KT 10SM CLR 28/18 A3009 RMK AO2 SLP187 T02780183 51006
cycle: 15

Station Type Date Time Source
KAPF TAF 2019/05/25 15:04 UTC NOAA

TAF
AMD KAPF 251502Z 2515/2612 09012KT P6SM FEW030
FM260000 07010KT P6SM FEW035

Example: see airport list